createdAt,value
2022-10-17T00:00:49.095Z,101421.56
2022-10-17T00:03:16.938Z,101424.22
2022-10-17T00:05:47.022Z,101414.44
2022-10-17T00:08:16.383Z,101424.88
2022-10-17T00:10:44.379Z,101423.84
2022-10-17T00:13:13.565Z,101425.69
2022-10-17T00:15:45.146Z,101422.31
2022-10-17T00:18:12.462Z,101415.25
2022-10-17T00:20:39.778Z,101419.47
2022-10-17T00:23:07.009Z,101417.34
2022-10-17T00:25:34.494Z,101410.91
2022-10-17T00:28:01.833Z,101417.84
2022-10-17T00:30:29.236Z,101418.69
2022-10-17T00:32:57.033Z,101427.09
2022-10-17T00:35:24.383Z,101417.03
2022-10-17T00:37:51.641Z,101412.25
2022-10-17T00:40:19.010Z,101420.63
2022-10-17T00:42:47.834Z,101421.94
2022-10-17T00:45:20.535Z,101419.41
2022-10-17T00:48:01.661Z,101420.69
2022-10-17T00:50:30.730Z,101417.38
2022-10-17T00:53:01.846Z,101421.69
2022-10-17T00:55:33.601Z,101410.34
2022-10-17T00:58:03.627Z,101408.06
2022-10-17T01:00:31.495Z,101412.34
2022-10-17T01:02:58.815Z,101412.56
2022-10-17T01:05:26.778Z,101409.53
2022-10-17T01:07:56.088Z,101417.38
2022-10-17T01:10:30.676Z,101394.53
2022-10-17T01:13:25.240Z,101418.84
2022-10-17T01:16:32.611Z,101416.34
2022-10-17T01:19:27.706Z,101413.97
2022-10-17T01:22:24.220Z,101409.63
2022-10-17T01:25:00.497Z,101414.28
2022-10-17T01:27:44.072Z,101411.34
2022-10-17T01:30:32.209Z,101403.53
2022-10-17T01:33:09.667Z,101407.34
2022-10-17T01:35:43.906Z,101403.66
2022-10-17T01:38:19.313Z,101403.63
2022-10-17T01:41:17.227Z,101406.06
2022-10-17T01:43:59.862Z,101399.97
2022-10-17T01:46:37.720Z,101405.38
2022-10-17T01:49:08.839Z,101398.00
2022-10-17T01:51:45.456Z,101392.78
2022-10-17T01:54:21.845Z,101403.09
2022-10-17T01:56:53.150Z,101392.78
2022-10-17T01:59:25.288Z,101399.97
2022-10-17T02:01:55.857Z,101400.94
2022-10-17T02:04:24.218Z,101390.81
2022-10-17T02:06:51.559Z,101404.22
2022-10-17T02:09:24.501Z,101394.63
2022-10-17T02:12:18.315Z,101402.22
2022-10-17T02:15:05.498Z,101405.69
2022-10-17T02:17:43.263Z,101404.94
2022-10-17T02:20:25.516Z,101405.63
2022-10-17T02:23:07.478Z,101401.47
2022-10-17T02:25:49.202Z,101410.44
2022-10-17T02:28:32.530Z,101402.28
2022-10-17T02:31:23.127Z,101407.16
2022-10-17T02:33:57.089Z,101416.13
2022-10-17T02:36:29.450Z,101409.63
2022-10-17T02:38:59.175Z,101409.50
2022-10-17T02:43:57.626Z,101412.56
2022-10-17T02:46:29.043Z,101422.56
2022-10-17T02:49:04.576Z,101403.78
2022-10-17T02:52:02.058Z,101398.44
2022-10-17T02:54:39.478Z,101427.44
2022-10-17T02:57:11.055Z,101431.13
2022-10-17T02:59:41.778Z,101428.44
2022-10-17T03:02:09.226Z,101432.09
2022-10-17T03:04:36.653Z,101434.56
2022-10-17T03:07:04.046Z,101438.19
2022-10-17T03:09:31.413Z,101441.94
2022-10-17T03:11:58.758Z,101431.97
2022-10-17T03:14:26.120Z,101441.53
2022-10-17T03:16:53.483Z,101448.47
2022-10-17T03:19:20.925Z,101441.13
2022-10-17T03:21:48.649Z,101439.41
2022-10-17T03:24:16.057Z,101454.53
2022-10-17T03:26:43.470Z,101442.47
2022-10-17T03:29:11.097Z,101449.28
2022-10-17T03:31:38.962Z,101459.59
2022-10-17T03:34:07.526Z,101453.34
2022-10-17T03:36:34.887Z,101458.88
2022-10-17T03:39:02.450Z,101449.97
2022-10-17T03:41:29.845Z,101448.09
2022-10-17T03:43:57.149Z,101463.31
2022-10-17T03:46:25.277Z,101459.19
2022-10-17T03:48:54.275Z,101457.63
2022-10-17T03:51:21.589Z,101456.84
2022-10-17T03:53:53.992Z,101461.41
2022-10-17T03:56:24.286Z,101456.66
2022-10-17T03:58:58.002Z,101452.03
2022-10-17T04:01:25.673Z,101452.53
2022-10-17T04:03:55.239Z,101459.72
2022-10-17T04:06:23.356Z,101461.03
2022-10-17T04:08:51.076Z,101447.53
2022-10-17T04:11:25.306Z,101464.09
2022-10-17T04:13:57.199Z,101465.16
2022-10-17T04:16:26.398Z,101470.78
2022-10-17T04:19:00.331Z,101460.72
2022-10-17T04:21:31.938Z,101460.63
2022-10-17T04:24:04.583Z,101471.28
2022-10-17T04:26:55.060Z,101473.13
2022-10-17T04:29:26.134Z,101475.06
2022-10-17T04:31:59.030Z,101480.41
2022-10-17T04:34:35.010Z,101474.78
2022-10-17T04:37:02.715Z,101477.31
2022-10-17T04:39:30.250Z,101474.78
2022-10-17T04:41:58.280Z,101474.50
2022-10-17T04:44:25.726Z,101473.72
2022-10-17T04:46:53.221Z,101463.72
2022-10-17T04:49:20.647Z,101471.47
2022-10-17T04:51:52.459Z,101474.28
2022-10-17T04:54:26.463Z,101467.44
2022-10-17T04:57:03.602Z,101474.97
2022-10-17T04:59:31.568Z,101474.19
2022-10-17T05:02:15.533Z,101474.66
2022-10-17T05:04:46.625Z,101474.75
2022-10-17T05:07:15.374Z,101474.69
2022-10-17T05:09:59.004Z,101486.09
2022-10-17T05:12:26.782Z,101485.34
2022-10-17T05:14:54.567Z,101492.28
2022-10-17T05:17:24.385Z,101491.72
2022-10-17T05:19:51.688Z,101492.38
2022-10-17T05:22:19.256Z,101494.81
2022-10-17T05:24:46.747Z,101493.94
2022-10-17T05:27:14.173Z,101501.56
2022-10-17T05:29:41.609Z,101503.91
2022-10-17T05:32:17.033Z,101508.38
2022-10-17T05:34:44.768Z,101507.50
2022-10-17T05:37:12.224Z,101508.53
2022-10-17T05:39:40.516Z,101483.97
2022-10-17T05:42:09.894Z,101505.56
2022-10-17T05:44:37.427Z,101499.25
2022-10-17T05:47:05.880Z,101517.53
2022-10-17T05:49:44.959Z,101518.84
2022-10-17T05:52:18.241Z,101519.72
2022-10-17T05:54:56.951Z,101516.44
2022-10-17T05:57:27.601Z,101518.91
2022-10-17T05:59:55.306Z,101521.38
2022-10-17T06:02:23.080Z,101521.81
2022-10-17T06:04:50.712Z,101531.59
2022-10-17T06:07:20.759Z,101530.97
2022-10-17T06:09:49.907Z,101534.47
2022-10-17T06:12:18.671Z,101532.38
2022-10-17T06:14:46.796Z,101541.63
2022-10-17T06:17:16.366Z,101552.63
2022-10-17T06:19:47.891Z,101545.41
2022-10-17T06:22:16.281Z,101552.25
2022-10-17T06:24:44.167Z,101544.72
2022-10-17T06:27:12.678Z,101548.31
2022-10-17T06:29:41.433Z,101545.44
2022-10-17T06:32:12.561Z,101553.06
2022-10-17T06:34:43.484Z,101555.91
2022-10-17T06:37:11.178Z,101549.75
2022-10-17T06:39:40.347Z,101555.44
2022-10-17T06:42:12.824Z,101559.53
2022-10-17T06:44:49.336Z,101564.69
2022-10-17T06:47:22.868Z,101548.44
2022-10-17T06:49:52.779Z,101574.31
2022-10-17T06:52:40.298Z,101568.41
2022-10-17T06:55:26.109Z,101577.91
2022-10-17T06:58:11.875Z,101572.38
2022-10-17T07:01:17.697Z,101567.72
2022-10-17T07:03:50.397Z,101565.75
2022-10-17T07:06:18.343Z,101580.19
2022-10-17T07:08:46.881Z,101580.00
2022-10-17T07:11:19.472Z,101583.09
2022-10-17T07:13:49.869Z,101585.31
2022-10-17T07:16:17.771Z,101578.50
2022-10-17T07:18:52.591Z,101593.59
2022-10-17T07:21:20.438Z,101590.59
2022-10-17T07:23:47.957Z,101598.88
2022-10-17T07:26:17.817Z,101586.78
2022-10-17T07:28:47.108Z,101584.56
2022-10-17T07:31:28.435Z,101586.75
2022-10-17T07:33:55.915Z,101577.47
2022-10-17T07:36:30.978Z,101578.41
2022-10-17T07:39:00.295Z,101590.88
2022-10-17T07:41:28.203Z,101582.38
2022-10-17T07:43:56.637Z,101581.25
2022-10-17T07:46:30.057Z,101580.13
2022-10-17T07:48:57.587Z,101574.97
2022-10-17T07:51:25.106Z,101586.00
2022-10-17T07:53:52.553Z,101595.75
2022-10-17T07:56:21.748Z,101589.03
2022-10-17T07:58:49.089Z,101588.97
2022-10-17T08:01:16.552Z,101588.56
2022-10-17T08:03:48.958Z,101590.41
2022-10-17T08:06:16.378Z,101602.53
2022-10-17T08:08:44.113Z,101592.78
2022-10-17T08:11:14.413Z,101592.22
2022-10-17T08:13:42.297Z,101584.88
2022-10-17T08:16:12.339Z,101590.31
2022-10-17T08:18:41.501Z,101587.00
2022-10-17T08:21:09.834Z,101587.00
2022-10-17T08:23:37.961Z,101602.91
2022-10-17T08:26:10.930Z,101596.13
2022-10-17T08:28:42.712Z,101593.25
2022-10-17T08:31:16.043Z,101591.66
2022-10-17T08:33:43.428Z,101605.50
2022-10-17T08:36:14.130Z,101596.53
2022-10-17T08:38:43.892Z,101601.41
2022-10-17T08:41:22.822Z,101601.94
2022-10-17T08:44:27.507Z,101608.41
2022-10-17T08:46:59.303Z,101598.88
2022-10-17T08:49:42.392Z,101596.84
2022-10-17T08:52:30.546Z,101602.56
2022-10-17T08:54:58.188Z,101608.03
2022-10-17T08:57:26.540Z,101586.53
2022-10-17T08:59:55.441Z,101605.66
2022-10-17T09:02:31.772Z,101597.31
2022-10-17T09:05:36.152Z,101599.94
2022-10-17T09:08:32.286Z,101594.78
2022-10-17T09:11:21.387Z,101601.88
2022-10-17T09:13:51.791Z,101596.34
2022-10-17T09:16:55.210Z,101602.44
2022-10-17T09:20:10.207Z,101595.44
2022-10-17T09:23:06.092Z,101602.84
2022-10-17T09:25:42.889Z,101600.00
2022-10-17T09:28:14.360Z,101600.94
2022-10-17T09:30:52.682Z,101591.16
2022-10-17T09:33:35.657Z,101601.13
2022-10-17T09:36:37.486Z,101598.56
2022-10-17T09:39:18.009Z,101609.59
2022-10-17T09:41:49.114Z,101609.56
2022-10-17T09:44:20.895Z,101610.50
2022-10-17T09:47:17.157Z,101608.25
2022-10-17T09:49:46.818Z,101609.59
2022-10-17T09:52:34.827Z,101604.78
2022-10-17T09:55:20.581Z,101596.94
2022-10-17T09:58:01.050Z,101599.81
2022-10-17T10:00:38.507Z,101596.94
2022-10-17T10:03:13.363Z,101601.09
2022-10-17T10:05:44.404Z,101601.88
2022-10-17T10:08:18.226Z,101596.22
2022-10-17T10:10:46.105Z,101605.75
2022-10-17T10:13:13.302Z,101605.44
2022-10-17T10:15:42.554Z,101610.31
2022-10-17T10:18:25.314Z,101615.66
2022-10-17T10:21:09.520Z,101612.13
2022-10-17T10:23:42.384Z,101609.13
2022-10-17T10:26:21.829Z,101609.84
2022-10-17T10:29:06.909Z,101614.97
2022-10-17T10:31:37.904Z,101606.75
2022-10-17T10:34:20.717Z,101612.69
2022-10-17T10:37:00.036Z,101600.63
2022-10-17T10:39:34.066Z,101597.41
2022-10-17T10:42:03.596Z,101600.09
2022-10-17T10:44:32.569Z,101593.97
2022-10-17T10:47:17.229Z,101576.00
2022-10-17T10:49:45.595Z,101590.22
2022-10-17T10:52:22.807Z,101593.38
2022-10-17T10:55:05.456Z,101584.19
2022-10-17T10:57:37.263Z,101578.72
2022-10-17T11:00:15.852Z,101582.50
2022-10-17T11:02:54.141Z,101585.13
2022-10-17T11:05:40.881Z,101575.25
2022-10-17T11:08:14.806Z,101571.81
2022-10-17T11:10:52.261Z,101573.78
2022-10-17T11:13:43.906Z,101567.66
2022-10-17T11:16:17.377Z,101562.66
2022-10-17T12:00:32.488Z,101513.25
2022-10-17T12:03:07.524Z,101511.13
2022-10-17T12:05:41.128Z,101517.84
2022-10-17T12:08:33.744Z,101513.56
2022-10-17T12:11:38.298Z,101512.44
2022-10-17T12:14:45.391Z,101486.53
2022-10-17T12:17:35.239Z,101516.50
2022-10-17T12:20:19.059Z,101507.59
2022-10-17T12:22:58.167Z,101502.72
2022-10-17T12:25:32.983Z,101506.09
2022-10-17T12:28:14.615Z,101499.59
2022-10-17T12:31:13.871Z,101497.69
2022-10-17T12:33:55.650Z,101491.22
2022-10-17T12:36:23.093Z,101497.91
2022-10-17T12:38:53.223Z,101489.53
2022-10-17T12:41:39.208Z,101506.88
2022-10-17T12:44:14.704Z,101498.34
2022-10-17T12:46:58.230Z,101499.91
2022-10-17T12:49:43.221Z,101499.16
2022-10-17T12:52:27.650Z,101492.06
2022-10-17T12:55:10.867Z,101496.38
2022-10-17T12:57:51.071Z,101494.06
2022-10-17T13:00:59.619Z,101501.22
2022-10-17T13:03:35.411Z,101485.13
2022-10-17T13:06:07.275Z,101489.38
2022-10-17T13:08:39.414Z,101490.50
2022-10-17T13:11:09.223Z,101489.47
2022-10-17T13:13:39.469Z,101496.31
2022-10-17T13:16:07.144Z,101490.97
2022-10-17T13:18:34.996Z,101485.69
2022-10-17T13:21:06.861Z,101488.84
2022-10-17T13:23:37.205Z,101487.13
2022-10-17T13:26:20.359Z,101482.41
2022-10-17T13:29:06.554Z,101487.59
2022-10-17T13:31:39.039Z,101475.72
2022-10-17T13:34:16.953Z,101484.03
2022-10-17T13:36:48.874Z,101488.22
2022-10-17T13:39:23.217Z,101488.22
2022-10-17T13:41:57.143Z,101483.69
2022-10-17T13:44:29.403Z,101490.97
2022-10-17T13:46:56.738Z,101484.59
2022-10-17T13:49:34.194Z,101486.66
2022-10-17T13:52:04.407Z,101496.03
2022-10-17T13:54:40.472Z,101497.88
2022-10-17T13:57:29.505Z,101500.91
2022-10-17T14:00:10.053Z,101493.56
2022-10-17T14:02:42.364Z,101502.97
2022-10-17T14:05:17.887Z,101510.63
2022-10-17T14:08:13.042Z,101503.53
2022-10-17T14:10:44.607Z,101504.16
2022-10-17T14:13:27.447Z,101504.06
2022-10-17T14:15:59.305Z,101499.41
2022-10-17T14:18:36.805Z,101501.81
2022-10-17T14:24:14.412Z,101492.41
2022-10-17T14:26:55.700Z,101495.81
2022-10-17T14:29:25.370Z,101495.03
2022-10-17T14:32:18.080Z,101490.69
2022-10-17T14:34:46.850Z,101502.63
2022-10-17T14:37:35.212Z,101496.44
2022-10-17T14:40:06.031Z,101492.09
2022-10-17T14:42:40.750Z,101495.72
2022-10-17T14:45:13.425Z,101488.50
2022-10-17T14:47:43.909Z,101497.13
2022-10-17T14:50:11.687Z,101497.06
2022-10-17T14:52:40.050Z,101507.25
2022-10-17T14:55:28.255Z,101503.81
2022-10-17T14:57:55.617Z,101508.81
2022-10-17T15:00:24.616Z,101515.34
2022-10-17T15:02:54.990Z,101501.19
2022-10-17T15:05:23.720Z,101503.41
2022-10-17T15:07:51.597Z,101502.69
2022-10-17T15:10:35.988Z,101506.44
2022-10-17T15:15:52.612Z,101504.28
2022-10-17T15:18:20.027Z,101510.09
2022-10-17T15:20:50.089Z,101506.41
2022-10-17T15:23:23.538Z,101506.84
2022-10-17T15:25:50.986Z,101502.88
2022-10-17T15:28:18.378Z,101504.16
2022-10-17T15:30:45.955Z,101501.69
2022-10-17T15:33:13.410Z,101503.50
2022-10-17T15:35:43.480Z,101498.41
2022-10-17T15:38:18.465Z,101516.91
2022-10-17T15:40:49.127Z,101521.47
2022-10-17T15:43:19.855Z,101522.50
2022-10-17T15:45:47.923Z,101535.91
2022-10-17T15:48:31.626Z,101524.59
2022-10-17T15:50:59.082Z,101541.03
2022-10-17T15:53:26.704Z,101544.84
2022-10-17T15:55:54.190Z,101545.75
2022-10-17T15:58:21.596Z,101543.50
2022-10-17T16:00:49.267Z,101529.22
2022-10-17T16:03:16.771Z,101551.19
2022-10-17T16:05:44.171Z,101543.22
2022-10-17T16:08:11.560Z,101557.53
2022-10-17T16:10:40.843Z,101558.72
2022-10-17T16:13:20.755Z,101559.44
2022-10-17T16:15:48.237Z,101559.03
2022-10-17T16:18:15.649Z,101570.44
2022-10-17T16:20:43.125Z,101572.88
2022-10-17T16:23:12.852Z,101579.81
2022-10-17T16:25:41.043Z,101583.84
2022-10-17T16:28:08.810Z,101578.63
2022-10-17T16:30:42.812Z,101582.91
2022-10-17T16:33:10.704Z,101573.25
2022-10-17T16:35:38.219Z,101590.22
2022-10-17T16:38:08.010Z,101594.13
2022-10-17T16:40:38.322Z,101591.94
2022-10-17T16:43:05.967Z,101578.22
2022-10-17T16:45:33.482Z,101591.69
2022-10-17T16:48:01.536Z,101595.28
2022-10-17T16:50:31.427Z,101595.53
2022-10-17T16:52:58.868Z,101591.91
2022-10-17T16:55:26.229Z,101598.63
2022-10-17T16:57:53.909Z,101597.41
2022-10-17T17:00:21.479Z,101599.41
2022-10-17T17:02:49.330Z,101613.69
2022-10-17T17:05:16.751Z,101612.06
2022-10-17T17:07:44.273Z,101609.75
2022-10-17T17:10:11.587Z,101613.72
2022-10-17T17:12:39.053Z,101619.19
2022-10-17T17:15:06.583Z,101616.03
2022-10-17T17:17:49.701Z,101635.38
2022-10-17T17:20:19.785Z,101626.72
2022-10-17T17:22:47.157Z,101627.41
2022-10-17T17:25:14.731Z,101625.91
2022-10-17T17:27:42.184Z,101627.91
2022-10-17T17:30:10.048Z,101627.31
2022-10-17T17:32:37.503Z,101637.13
2022-10-17T17:35:05.259Z,101637.41
2022-10-17T17:37:32.790Z,101634.44
2022-10-17T17:40:00.490Z,101643.59
2022-10-17T17:42:27.948Z,101635.88
2022-10-17T17:44:55.398Z,101636.41
2022-10-17T17:47:22.732Z,101626.22
2022-10-17T17:49:50.179Z,101631.69
2022-10-17T17:52:17.547Z,101642.81
2022-10-17T17:54:46.158Z,101639.84
2022-10-17T17:57:13.676Z,101639.03
2022-10-17T17:59:41.722Z,101636.75
2022-10-17T18:02:11.319Z,101636.91
2022-10-17T18:04:38.831Z,101640.69
2022-10-17T18:07:06.241Z,101638.47
2022-10-17T18:09:33.804Z,101643.28
2022-10-17T18:12:01.575Z,101641.47
2022-10-17T18:14:28.980Z,101646.44
2022-10-17T18:16:56.635Z,101647.03
2022-10-17T18:19:24.158Z,101640.47
2022-10-17T18:21:51.654Z,101634.53
2022-10-17T18:24:19.427Z,101639.03
2022-10-17T18:26:46.857Z,101636.44
2022-10-17T18:29:14.365Z,101629.56
2022-10-17T18:31:41.829Z,101636.25
2022-10-17T18:34:10.026Z,101634.16
2022-10-17T18:36:37.987Z,101634.94
2022-10-17T18:39:05.864Z,101637.75
2022-10-17T18:41:34.131Z,101628.69
2022-10-17T18:44:03.213Z,101634.91
2022-10-17T18:46:35.911Z,101634.69
2022-10-17T18:49:03.744Z,101633.47
2022-10-17T18:51:31.284Z,101640.78
2022-10-17T18:53:59.401Z,101635.31
2022-10-17T18:56:30.275Z,101632.09
2022-10-17T18:58:58.139Z,101631.31
2022-10-17T19:01:27.619Z,101630.59
2022-10-17T19:03:57.609Z,101630.97
2022-10-17T19:06:32.110Z,101630.38
2022-10-17T19:09:01.521Z,101628.88
2022-10-17T19:11:31.074Z,101629.63
2022-10-17T19:14:01.099Z,101635.34
2022-10-17T19:16:33.614Z,101634.59
2022-10-17T19:19:07.164Z,101637.06
2022-10-17T19:21:35.146Z,101640.88
2022-10-17T19:24:05.527Z,101641.06
2022-10-17T19:26:35.572Z,101638.31
2022-10-17T19:29:04.385Z,101631.59
2022-10-17T19:31:33.030Z,101640.28
2022-10-17T19:34:01.145Z,101637.78
2022-10-17T19:36:33.315Z,101636.53
2022-10-17T19:39:07.561Z,101647.69
2022-10-17T19:41:36.681Z,101639.25
2022-10-17T19:44:04.232Z,101648.06
2022-10-17T19:46:32.430Z,101641.50
2022-10-17T19:49:00.437Z,101650.41
2022-10-17T19:51:29.357Z,101647.13
2022-10-17T19:54:00.621Z,101646.84
2022-10-17T19:56:29.993Z,101653.63
2022-10-17T19:58:58.792Z,101647.94
2022-10-17T20:01:34.083Z,101645.69
2022-10-17T20:04:02.076Z,101644.31
2022-10-17T20:06:29.532Z,101649.28
2022-10-17T20:08:57.185Z,101648.50
2022-10-17T20:11:27.727Z,101657.41
2022-10-17T20:13:55.987Z,101666.06
2022-10-17T20:18:56.495Z,101666.59
2022-10-17T20:21:27.618Z,101659.06
2022-10-17T20:23:56.581Z,101659.81
2022-10-17T20:26:37.453Z,101650.69
2022-10-17T20:29:09.051Z,101661.78
2022-10-17T20:31:36.995Z,101661.63
2022-10-17T20:34:04.466Z,101662.50
2022-10-17T20:36:32.646Z,101667.56
2022-10-17T20:39:00.737Z,101670.09
2022-10-17T20:41:28.028Z,101666.16
2022-10-17T20:43:56.207Z,101663.00
2022-10-17T20:46:36.427Z,101666.38
2022-10-17T20:49:09.064Z,101666.19
2022-10-17T20:51:36.796Z,101673.22
2022-10-17T20:54:04.963Z,101672.81
2022-10-17T20:56:33.758Z,101663.34
2022-10-17T20:59:04.265Z,101669.66
2022-10-17T21:01:33.530Z,101671.75
2022-10-17T21:04:21.353Z,101659.22
2022-10-17T21:06:49.002Z,101668.44
2022-10-17T21:09:16.451Z,101660.88
2022-10-17T21:11:44.408Z,101670.75
2022-10-17T21:14:12.631Z,101662.63
2022-10-17T21:16:41.533Z,101670.81
2022-10-17T21:19:12.346Z,101656.75
2022-10-17T21:21:44.845Z,101665.91
2022-10-17T21:24:17.799Z,101672.84
2022-10-17T21:26:46.798Z,101669.50
2022-10-17T21:29:14.825Z,101680.91
2022-10-17T21:31:44.991Z,101674.94
2022-10-17T21:34:26.712Z,101672.66
2022-10-17T21:36:54.052Z,101669.94
2022-10-17T21:39:22.245Z,101671.56
2022-10-17T21:41:49.564Z,101673.94
2022-10-17T21:44:19.285Z,101674.16
2022-10-17T21:46:47.775Z,101672.31
2022-10-17T21:49:17.511Z,101678.22
2022-10-17T21:51:45.651Z,101673.72
2022-10-17T21:54:13.010Z,101670.25
2022-10-17T21:56:40.986Z,101666.53
2022-10-17T21:59:08.928Z,101668.72
2022-10-17T22:01:39.539Z,101667.53
2022-10-17T22:04:09.116Z,101673.50
2022-10-17T22:06:40.686Z,101669.16
2022-10-17T22:09:20.971Z,101663.25
2022-10-17T22:11:50.931Z,101667.06
2022-10-17T22:14:20.122Z,101661.75
2022-10-17T22:16:48.346Z,101657.91
2022-10-17T22:19:18.905Z,101669.78
2022-10-17T22:21:46.727Z,101668.22
2022-10-17T22:24:15.803Z,101674.22
2022-10-17T22:26:44.707Z,101674.22
2022-10-17T22:29:12.960Z,101671.78
2022-10-17T22:31:42.929Z,101667.00
2022-10-17T22:34:12.740Z,101671.28
2022-10-17T22:36:40.956Z,101671.63
2022-10-17T22:39:08.942Z,101661.72
2022-10-17T22:41:36.296Z,101668.28
2022-10-17T22:44:03.929Z,101667.81
2022-10-17T22:46:31.199Z,101662.59
2022-10-17T22:48:58.663Z,101655.84
2022-10-17T22:51:26.023Z,101651.69
2022-10-17T22:53:53.282Z,101650.91
2022-10-17T22:56:21.744Z,101659.13
2022-10-17T22:58:48.970Z,101664.84
2022-10-17T23:01:19.549Z,101667.16
2022-10-17T23:03:47.713Z,101653.75
2022-10-17T23:06:15.441Z,101652.47
2022-10-17T23:08:43.978Z,101649.41
2022-10-17T23:11:11.886Z,101647.63
2022-10-17T23:13:41.108Z,101650.66
2022-10-17T23:16:09.518Z,101643.69
2022-10-17T23:18:38.084Z,101650.66
2022-10-17T23:21:06.084Z,101652.13
2022-10-17T23:23:33.622Z,101647.81
2022-10-17T23:26:10.552Z,101651.94
2022-10-17T23:28:38.877Z,101650.22
2022-10-17T23:31:18.656Z,101648.59
2022-10-17T23:33:49.101Z,101646.66
2022-10-17T23:36:19.728Z,101650.28
2022-10-17T23:38:48.045Z,101651.75
2022-10-17T23:41:16.148Z,101654.91
2022-10-17T23:43:44.380Z,101644.28
2022-10-17T23:46:14.202Z,101647.38
2022-10-17T23:48:41.925Z,101652.13
2022-10-17T23:51:10.695Z,101641.59
2022-10-17T23:53:39.305Z,101643.81
2022-10-17T23:56:08.077Z,101647.41
2022-10-17T23:58:35.955Z,101647.97
